createdAt,value
2022-07-31T00:00:26.686Z,91.66
2022-07-31T00:02:54.846Z,92.12
2022-07-31T00:05:23.153Z,92.77
2022-07-31T00:07:51.076Z,92.91
2022-07-31T00:10:18.923Z,93.46
2022-07-31T00:12:48.066Z,94.15
2022-07-31T00:15:15.980Z,94.34
2022-07-31T00:17:45.015Z,94.20
2022-07-31T00:20:14.799Z,93.97
2022-07-31T00:22:43.159Z,93.87
2022-07-31T00:25:12.499Z,93.63
2022-07-31T00:27:41.076Z,93.73
2022-07-31T00:30:13.039Z,93.65
2022-07-31T00:32:41.898Z,93.94
2022-07-31T00:35:14.179Z,94.10
2022-07-31T00:37:42.939Z,94.45
2022-07-31T00:40:13.336Z,94.87
2022-07-31T00:42:41.379Z,95.06
2022-07-31T00:45:13.709Z,94.87
2022-07-31T00:47:42.166Z,94.40
2022-07-31T00:50:11.433Z,94.18
2022-07-31T00:52:39.454Z,94.29
2022-07-31T00:55:08.635Z,94.38
2022-07-31T00:57:37.122Z,94.52
2022-07-31T01:00:05.946Z,94.88
2022-07-31T01:02:35.224Z,94.79
2022-07-31T01:05:03.149Z,94.99
2022-07-31T01:07:31.026Z,95.08
2022-07-31T01:10:01.440Z,96.24
2022-07-31T01:12:35.106Z,96.41
2022-07-31T01:15:06.437Z,97.23
2022-07-31T01:17:38.243Z,97.73
2022-07-31T01:20:08.831Z,97.79
2022-07-31T01:22:59.301Z,97.47
2022-07-31T01:25:41.566Z,97.07
2022-07-31T01:28:29.874Z,97.16
2022-07-31T01:31:25.326Z,97.67
2022-07-31T01:34:00.671Z,97.72
2022-07-31T01:36:35.077Z,97.41
2022-07-31T01:39:04.599Z,97.76
2022-07-31T01:41:37.341Z,97.58
2022-07-31T01:44:07.959Z,97.65
2022-07-31T01:46:44.686Z,97.76
2022-07-31T01:49:15.688Z,98.29
2022-07-31T01:51:45.409Z,98.31
2022-07-31T01:54:15.213Z,98.12
2022-07-31T01:56:44.595Z,98.46
2022-07-31T01:59:20.538Z,98.40
2022-07-31T02:02:17.940Z,98.34
2022-07-31T02:04:47.252Z,98.53
2022-07-31T02:07:16.121Z,98.49
2022-07-31T02:09:58.193Z,98.22
2022-07-31T02:12:34.110Z,97.88
2022-07-31T02:15:04.056Z,98.00
2022-07-31T02:17:34.891Z,98.40
2022-07-31T02:20:40.763Z,98.71
2022-07-31T02:23:12.025Z,98.73
2022-07-31T02:25:41.398Z,98.49
2022-07-31T02:28:12.253Z,98.34
2022-07-31T02:30:41.941Z,98.15
2022-07-31T02:33:15.428Z,98.38
2022-07-31T02:35:46.336Z,98.53
2022-07-31T02:38:22.473Z,99.42
2022-07-31T02:40:52.466Z,100.00
2022-07-31T02:43:21.169Z,100.00
2022-07-31T02:45:49.501Z,100.00
2022-07-31T02:48:19.164Z,100.00
2022-07-31T02:50:50.504Z,100.00
2022-07-31T02:53:18.642Z,100.00
2022-07-31T02:55:47.574Z,100.00
2022-07-31T02:58:15.489Z,100.00
2022-07-31T03:00:46.239Z,100.00
2022-07-31T03:03:15.192Z,100.00
2022-07-31T03:05:44.911Z,100.00
2022-07-31T03:08:14.361Z,100.00
2022-07-31T03:10:44.633Z,100.00
2022-07-31T03:13:14.238Z,100.00
2022-07-31T03:15:50.223Z,100.00
2022-07-31T03:18:21.721Z,100.00
2022-07-31T03:20:52.764Z,100.00
2022-07-31T03:23:27.349Z,100.00
2022-07-31T03:26:04.657Z,100.00
2022-07-31T03:28:34.451Z,100.00
2022-07-31T03:31:02.835Z,100.00
2022-07-31T03:33:32.167Z,100.00
2022-07-31T03:36:01.406Z,100.00
2022-07-31T03:38:38.935Z,100.00
2022-07-31T03:41:10.047Z,100.00
2022-07-31T03:43:44.046Z,100.00
2022-07-31T03:46:19.686Z,100.00
2022-07-31T03:48:52.238Z,100.00
2022-07-31T03:51:22.279Z,100.00
2022-07-31T03:53:51.709Z,100.00
2022-07-31T03:56:41.387Z,100.00
2022-07-31T03:59:15.887Z,100.00
2022-07-31T04:01:56.626Z,100.00
2022-07-31T04:05:09.774Z,100.00
2022-07-31T04:07:40.141Z,100.00
2022-07-31T04:10:09.173Z,100.00
2022-07-31T04:12:37.302Z,100.00
2022-07-31T04:15:05.723Z,100.00
2022-07-31T04:17:33.835Z,100.00
2022-07-31T04:20:02.270Z,100.00
2022-07-31T04:22:33.942Z,100.00
2022-07-31T04:25:05.261Z,100.00
2022-07-31T04:27:49.023Z,100.00
2022-07-31T04:30:18.121Z,100.00
2022-07-31T04:32:47.895Z,100.00
2022-07-31T04:35:22.215Z,100.00
2022-07-31T04:37:50.100Z,100.00
2022-07-31T04:40:20.383Z,100.00
2022-07-31T04:42:48.292Z,100.00
2022-07-31T04:45:16.221Z,100.00
2022-07-31T04:47:44.115Z,100.00
2022-07-31T04:50:12.080Z,100.00
2022-07-31T04:52:55.597Z,100.00
2022-07-31T04:55:25.834Z,100.00
2022-07-31T04:57:54.016Z,100.00
2022-07-31T05:00:22.070Z,100.00
2022-07-31T05:02:50.056Z,100.00
2022-07-31T05:05:18.423Z,100.00
2022-07-31T05:07:47.841Z,100.00
2022-07-31T05:10:45.288Z,100.00
2022-07-31T05:13:13.529Z,100.00
2022-07-31T05:15:44.528Z,100.00
2022-07-31T05:18:12.962Z,100.00
2022-07-31T05:20:56.143Z,100.00
2022-07-31T05:23:31.307Z,100.00
2022-07-31T05:26:08.777Z,100.00
2022-07-31T05:28:37.993Z,100.00
2022-07-31T05:31:07.083Z,100.00
2022-07-31T05:33:34.972Z,100.00
2022-07-31T05:36:03.448Z,100.00
2022-07-31T05:38:31.362Z,100.00
2022-07-31T05:41:19.381Z,100.00
2022-07-31T05:44:06.017Z,100.00
2022-07-31T05:46:38.203Z,100.00
2022-07-31T05:49:06.120Z,100.00
2022-07-31T05:51:34.014Z,100.00
2022-07-31T05:54:02.018Z,100.00
2022-07-31T05:56:57.348Z,97.16
2022-07-31T05:59:43.533Z,95.95
2022-07-31T06:02:12.025Z,94.78
2022-07-31T06:04:57.853Z,92.86
2022-07-31T06:07:26.099Z,90.73
2022-07-31T06:09:54.132Z,89.73
2022-07-31T06:12:23.827Z,88.65
2022-07-31T06:14:51.820Z,88.67
2022-07-31T06:17:51.957Z,88.42
2022-07-31T06:20:28.703Z,88.09
2022-07-31T06:22:56.811Z,87.77
2022-07-31T06:25:31.875Z,87.54
2022-07-31T06:28:10.369Z,87.45
2022-07-31T06:30:42.573Z,87.87
2022-07-31T06:33:16.612Z,88.87
2022-07-31T06:35:58.563Z,90.17
2022-07-31T06:38:39.384Z,90.90
2022-07-31T06:41:44.479Z,90.90
2022-07-31T06:44:33.948Z,90.38
2022-07-31T06:47:16.065Z,90.18
2022-07-31T06:50:00.428Z,90.54
2022-07-31T06:52:30.113Z,90.04
2022-07-31T06:54:58.244Z,89.79
2022-07-31T06:57:26.560Z,88.76
2022-07-31T06:59:56.003Z,89.00
2022-07-31T07:02:25.088Z,88.99
2022-07-31T07:05:04.924Z,88.77
2022-07-31T07:07:39.325Z,87.30
2022-07-31T07:10:10.274Z,87.09
2022-07-31T07:13:07.684Z,86.23
2022-07-31T07:15:38.928Z,85.17
2022-07-31T07:18:07.461Z,82.70
2022-07-31T07:20:50.129Z,81.94
2022-07-31T07:23:18.387Z,80.98
2022-07-31T07:26:04.886Z,79.12
2022-07-31T07:28:32.817Z,79.76
2022-07-31T07:31:04.691Z,79.35
2022-07-31T07:33:39.541Z,77.86
2022-07-31T07:36:22.850Z,78.26
2022-07-31T07:38:56.795Z,78.04
2022-07-31T07:41:25.210Z,77.53
2022-07-31T07:43:53.598Z,76.99
2022-07-31T07:46:25.522Z,76.30
2022-07-31T07:48:57.672Z,76.15
2022-07-31T07:51:59.303Z,75.24
2022-07-31T07:54:40.298Z,74.21
2022-07-31T07:57:28.266Z,73.63
2022-07-31T08:00:16.319Z,73.14
2022-07-31T08:03:47.724Z,71.59
2022-07-31T08:05:39.058Z,70.23
2022-07-31T08:08:08.917Z,69.26
2022-07-31T08:10:49.178Z,68.79
2022-07-31T08:13:22.882Z,67.82
2022-07-31T08:16:09.527Z,67.53
2022-07-31T08:18:44.712Z,66.39
2022-07-31T08:21:13.082Z,66.37
2022-07-31T08:23:41.604Z,65.50
2022-07-31T08:26:10.126Z,64.94
2022-07-31T08:28:39.618Z,63.95
2022-07-31T08:31:07.740Z,63.12
2022-07-31T08:33:48.051Z,62.38
2022-07-31T08:36:15.969Z,62.41
2022-07-31T08:38:44.145Z,62.00
2022-07-31T08:41:40.686Z,61.54
2022-07-31T08:44:10.771Z,61.32
2022-07-31T08:46:40.096Z,60.16
2022-07-31T08:49:12.845Z,59.45
2022-07-31T08:51:51.247Z,58.66
2022-07-31T08:54:51.516Z,58.18
2022-07-31T08:57:20.006Z,57.78
2022-07-31T08:59:49.165Z,55.80
2022-07-31T09:02:17.102Z,55.95
2022-07-31T09:05:06.079Z,56.44
2022-07-31T09:07:33.993Z,55.88
2022-07-31T09:12:33.863Z,54.33
2022-07-31T09:15:21.859Z,53.76
2022-07-31T09:17:54.006Z,53.97
2022-07-31T09:20:26.601Z,54.15
2022-07-31T09:23:06.146Z,54.09
2022-07-31T09:25:35.794Z,53.14
2022-07-31T09:28:05.787Z,53.20
2022-07-31T09:30:35.123Z,52.41
2022-07-31T09:33:30.602Z,53.15
2022-07-31T09:36:02.557Z,52.50
2022-07-31T09:38:34.412Z,52.49
2022-07-31T09:41:55.987Z,52.07
2022-07-31T09:44:15.621Z,50.98
2022-07-31T09:46:45.436Z,51.24
2022-07-31T09:49:13.897Z,50.62
2022-07-31T09:51:45.677Z,50.08
2022-07-31T09:54:22.254Z,50.61
2022-07-31T09:57:12.724Z,49.17
2022-07-31T09:59:46.747Z,49.38
2022-07-31T10:02:19.324Z,49.67
2022-07-31T10:04:51.668Z,50.35
2022-07-31T10:07:31.816Z,50.82
2022-07-31T10:10:11.261Z,50.11
2022-07-31T10:12:49.418Z,50.63
2022-07-31T10:15:18.665Z,49.98
2022-07-31T10:17:53.669Z,48.79
2022-07-31T10:20:38.626Z,49.17
2022-07-31T10:23:23.932Z,48.67
2022-07-31T10:25:58.200Z,46.61
2022-07-31T10:28:26.997Z,45.83
2022-07-31T10:30:54.941Z,46.12
2022-07-31T10:33:43.054Z,43.94
2022-07-31T10:36:39.075Z,42.90
2022-07-31T10:39:36.913Z,41.86
2022-07-31T10:42:27.840Z,41.03
2022-07-31T10:44:59.733Z,38.79
2022-07-31T10:47:39.078Z,37.16
2022-07-31T10:50:25.271Z,36.24
2022-07-31T10:53:10.114Z,37.06
2022-07-31T10:56:03.973Z,38.90
2022-07-31T10:58:50.412Z,40.60
2022-07-31T11:01:52.896Z,41.02
2022-07-31T11:04:40.565Z,42.14
2022-07-31T11:07:20.098Z,40.24
2022-07-31T11:10:18.418Z,37.90
2022-07-31T11:13:08.837Z,36.91
2022-07-31T11:16:04.919Z,33.63
2022-07-31T11:18:58.585Z,35.46
2022-07-31T11:21:38.940Z,34.76
2022-07-31T11:24:14.273Z,35.40
2022-07-31T11:26:50.691Z,33.31
2022-07-31T11:30:01.217Z,31.73
2022-07-31T11:32:25.416Z,32.63
2022-07-31T11:34:54.686Z,33.36
2022-07-31T11:37:24.662Z,33.62
2022-07-31T11:39:54.602Z,33.28
2022-07-31T11:42:27.284Z,32.89
2022-07-31T11:45:10.846Z,33.42
2022-07-31T11:48:10.897Z,33.12
2022-07-31T11:50:30.940Z,32.73
2022-07-31T11:53:04.294Z,33.68
2022-07-31T11:55:32.416Z,33.66
2022-07-31T11:58:00.224Z,33.71
2022-07-31T12:00:30.358Z,33.28
2022-07-31T12:02:58.891Z,33.32
2022-07-31T12:05:38.460Z,33.97
2022-07-31T12:08:07.979Z,33.15
2022-07-31T12:10:36.553Z,33.05
2022-07-31T12:13:04.532Z,33.46
2022-07-31T12:15:33.877Z,32.37
2022-07-31T12:18:03.050Z,33.58
2022-07-31T12:20:36.295Z,32.98
2022-07-31T12:23:06.718Z,32.46
2022-07-31T12:25:42.441Z,32.71
2022-07-31T12:28:11.255Z,32.31
2022-07-31T12:30:40.514Z,31.52
2022-07-31T12:33:09.749Z,31.90
2022-07-31T12:35:54.963Z,32.00
2022-07-31T12:38:40.746Z,32.29
2022-07-31T12:41:09.685Z,31.50
2022-07-31T12:43:38.948Z,31.17
2022-07-31T12:46:19.286Z,30.44
2022-07-31T12:48:47.225Z,30.71
2022-07-31T12:51:16.903Z,30.61
2022-07-31T12:53:45.028Z,30.77
2022-07-31T12:56:13.357Z,30.13
2022-07-31T12:58:41.420Z,28.78
2022-07-31T13:01:09.326Z,29.05
2022-07-31T13:03:45.419Z,29.28
2022-07-31T13:06:14.665Z,29.53
2022-07-31T13:08:43.905Z,28.67
2022-07-31T13:11:12.061Z,28.82
2022-07-31T13:13:39.960Z,28.25
2022-07-31T13:16:08.088Z,28.09
2022-07-31T13:18:38.057Z,26.78
2022-07-31T13:21:07.431Z,27.25
2022-07-31T13:23:35.383Z,27.77
2022-07-31T13:26:03.282Z,28.12
2022-07-31T13:28:31.206Z,28.39
2022-07-31T13:30:59.100Z,27.81
2022-07-31T13:33:27.044Z,27.34
2022-07-31T13:35:54.963Z,27.53
2022-07-31T13:38:24.251Z,27.49
2022-07-31T13:41:08.958Z,27.85
2022-07-31T13:43:37.071Z,27.73
2022-07-31T13:46:05.200Z,27.25
2022-07-31T13:48:33.456Z,27.10
2022-07-31T13:51:01.350Z,27.53
2022-07-31T13:53:32.994Z,27.77
2022-07-31T13:56:01.602Z,27.05
2022-07-31T13:58:29.869Z,26.87
2022-07-31T14:01:03.979Z,27.29
2022-07-31T14:03:32.894Z,28.40
2022-07-31T14:06:03.339Z,26.99
2022-07-31T14:08:49.956Z,26.82
2022-07-31T14:11:18.395Z,26.65
2022-07-31T14:13:46.361Z,27.02
2022-07-31T14:16:14.274Z,26.82
2022-07-31T14:18:42.268Z,25.81
2022-07-31T14:21:10.161Z,25.80
2022-07-31T14:23:40.907Z,26.11
2022-07-31T14:26:08.921Z,26.68
2022-07-31T14:28:36.927Z,27.15
2022-07-31T14:31:04.968Z,27.06
2022-07-31T14:33:33.039Z,26.87
2022-07-31T14:36:00.998Z,26.27
2022-07-31T14:38:29.012Z,26.45
2022-07-31T14:40:58.270Z,26.73
2022-07-31T14:43:26.277Z,26.89
2022-07-31T14:45:54.171Z,26.52
2022-07-31T14:48:22.120Z,26.26
2022-07-31T14:50:50.054Z,27.15
2022-07-31T14:53:18.025Z,27.18
2022-07-31T14:55:45.963Z,27.20
2022-07-31T14:58:15.283Z,27.50
2022-07-31T15:00:43.259Z,28.10
2022-07-31T15:03:11.238Z,27.83
2022-07-31T15:06:40.804Z,28.47
2022-07-31T15:08:29.489Z,28.89
2022-07-31T15:10:57.392Z,29.16
2022-07-31T15:13:26.688Z,29.40
2022-07-31T15:15:54.751Z,29.38
2022-07-31T15:18:25.682Z,28.87
2022-07-31T15:20:54.018Z,29.18
2022-07-31T15:23:22.101Z,28.80
2022-07-31T15:25:50.010Z,28.54
2022-07-31T15:28:18.024Z,28.70
2022-07-31T15:30:47.329Z,28.97
2022-07-31T15:33:15.410Z,29.25
2022-07-31T15:35:43.318Z,29.68
2022-07-31T15:38:11.228Z,30.09
2022-07-31T15:40:39.278Z,30.37
2022-07-31T15:43:07.263Z,30.60
2022-07-31T15:45:35.394Z,30.41
2022-07-31T15:48:09.803Z,30.39
2022-07-31T15:50:38.422Z,30.72
2022-07-31T15:53:06.366Z,30.54
2022-07-31T15:55:34.248Z,30.70
2022-07-31T15:58:02.229Z,30.91
2022-07-31T16:00:30.131Z,30.74
2022-07-31T16:02:58.060Z,31.34
2022-07-31T16:05:37.002Z,32.12
2022-07-31T16:08:33.000Z,32.23
2022-07-31T16:10:56.042Z,32.32
2022-07-31T16:13:24.690Z,32.39
2022-07-31T16:15:53.151Z,32.54
2022-07-31T16:18:21.626Z,32.39
2022-07-31T16:20:50.913Z,33.00
2022-07-31T16:23:18.838Z,32.91
2022-07-31T16:25:46.988Z,33.22
2022-07-31T16:28:15.152Z,33.14
2022-07-31T16:30:43.854Z,33.41
2022-07-31T16:33:11.773Z,33.65
2022-07-31T16:35:39.761Z,34.08
2022-07-31T16:38:09.285Z,34.62
2022-07-31T16:40:37.381Z,34.94
2022-07-31T16:43:48.397Z,35.32
2022-07-31T16:45:56.662Z,36.00
2022-07-31T16:48:25.427Z,35.85
2022-07-31T16:50:54.847Z,36.45
2022-07-31T16:54:12.140Z,36.80
2022-07-31T16:56:13.784Z,36.82
2022-07-31T16:58:41.881Z,37.50
2022-07-31T17:01:54.204Z,37.88
2022-07-31T17:04:00.164Z,38.25
2022-07-31T17:06:36.784Z,38.47
2022-07-31T17:09:15.748Z,38.60
2022-07-31T17:11:47.282Z,38.71
2022-07-31T17:14:15.285Z,39.08
2022-07-31T17:16:47.031Z,39.04
2022-07-31T17:19:16.480Z,39.23
2022-07-31T17:22:04.407Z,39.19
2022-07-31T17:24:34.858Z,39.46
2022-07-31T17:27:04.951Z,39.53
2022-07-31T17:29:33.265Z,39.79
2022-07-31T17:32:01.332Z,39.31
2022-07-31T17:34:29.416Z,39.59
2022-07-31T17:36:57.764Z,40.17
2022-07-31T17:39:30.463Z,39.98
2022-07-31T17:42:00.521Z,40.34
2022-07-31T17:44:28.487Z,39.80
2022-07-31T17:46:58.094Z,39.95
2022-07-31T17:49:28.140Z,40.16
2022-07-31T17:51:58.869Z,40.88
2022-07-31T17:54:30.321Z,41.09
2022-07-31T17:56:58.456Z,40.77
2022-07-31T17:59:28.122Z,41.00
2022-07-31T18:02:00.198Z,41.10
2022-07-31T18:04:29.166Z,41.79
2022-07-31T18:06:57.417Z,41.88
2022-07-31T18:09:25.922Z,41.51
2022-07-31T18:11:55.053Z,42.61
2022-07-31T18:14:24.451Z,42.08
2022-07-31T18:16:54.817Z,42.83
2022-07-31T18:19:22.918Z,43.12
2022-07-31T18:21:51.235Z,43.04
2022-07-31T18:24:19.292Z,44.48
2022-07-31T18:26:49.368Z,46.36
2022-07-31T18:29:17.847Z,47.33
2022-07-31T18:31:46.260Z,48.03
2022-07-31T18:34:15.800Z,48.35
2022-07-31T18:36:43.837Z,49.15
2022-07-31T18:39:12.064Z,49.19
2022-07-31T18:41:40.288Z,50.19
2022-07-31T18:44:08.359Z,50.27
2022-07-31T18:46:37.763Z,50.50
2022-07-31T18:49:07.707Z,50.51
2022-07-31T18:51:56.993Z,50.80
2022-07-31T18:54:24.931Z,51.05
2022-07-31T18:56:52.888Z,51.25
2022-07-31T18:59:20.876Z,51.08
2022-07-31T19:01:48.900Z,51.48
2022-07-31T19:04:16.874Z,51.52
2022-07-31T19:06:44.942Z,51.88
2022-07-31T19:09:14.232Z,52.33
2022-07-31T19:11:50.614Z,52.46
2022-07-31T19:14:19.720Z,52.00
2022-07-31T19:16:47.753Z,52.56
2022-07-31T19:19:17.971Z,53.39
2022-07-31T19:21:45.992Z,53.60
2022-07-31T19:24:15.458Z,53.81
2022-07-31T19:26:43.464Z,53.88
2022-07-31T19:29:11.493Z,54.29
2022-07-31T19:31:39.498Z,55.05
2022-07-31T19:34:07.500Z,56.64
2022-07-31T19:36:35.999Z,57.35
2022-07-31T19:39:03.971Z,57.84
2022-07-31T19:41:34.416Z,58.56
2022-07-31T19:44:02.525Z,58.44
2022-07-31T19:46:30.548Z,58.74
2022-07-31T19:48:59.520Z,58.89
2022-07-31T19:51:27.552Z,59.14
2022-07-31T19:53:55.567Z,59.20
2022-07-31T19:56:23.607Z,59.64
2022-07-31T19:58:53.107Z,60.00
2022-07-31T20:01:21.772Z,59.82
2022-07-31T20:03:49.969Z,59.64
2022-07-31T20:06:18.269Z,60.21
2022-07-31T20:08:46.265Z,60.36
2022-07-31T20:11:14.285Z,60.43
2022-07-31T20:13:42.372Z,60.53
2022-07-31T20:16:11.716Z,61.03
2022-07-31T20:18:39.651Z,61.92
2022-07-31T20:21:09.950Z,61.80
2022-07-31T20:23:39.203Z,62.35
2022-07-31T20:26:08.293Z,62.99
2022-07-31T20:28:36.503Z,64.42
2022-07-31T20:31:05.001Z,65.83
2022-07-31T20:33:34.642Z,66.57
2022-07-31T20:36:02.796Z,67.16
2022-07-31T20:38:33.310Z,67.31
2022-07-31T20:41:01.277Z,67.91
2022-07-31T20:43:30.719Z,68.08
2022-07-31T20:46:00.155Z,68.29
2022-07-31T20:48:32.550Z,68.05
2022-07-31T20:51:04.041Z,68.59
2022-07-31T20:53:32.951Z,68.82
2022-07-31T20:56:00.914Z,68.69
2022-07-31T20:58:29.409Z,68.50
2022-07-31T21:00:57.371Z,68.70
2022-07-31T21:03:25.484Z,68.42
2022-07-31T21:05:53.526Z,68.72
2022-07-31T21:08:22.860Z,68.73
2022-07-31T21:10:50.892Z,68.71
2022-07-31T21:13:18.883Z,69.19
2022-07-31T21:15:46.887Z,69.64
2022-07-31T21:18:17.033Z,69.86
2022-07-31T21:20:50.262Z,69.93
2022-07-31T21:23:23.646Z,70.00
2022-07-31T21:25:53.157Z,70.24
2022-07-31T21:28:21.802Z,70.54
2022-07-31T21:30:50.184Z,70.98
2022-07-31T21:33:18.976Z,70.98
2022-07-31T21:35:47.196Z,70.72
2022-07-31T21:38:16.344Z,70.84
2022-07-31T21:40:46.890Z,70.95
2022-07-31T21:43:18.549Z,70.47
2022-07-31T21:45:57.586Z,70.75
2022-07-31T21:48:30.824Z,71.49
2022-07-31T21:51:00.113Z,71.38
2022-07-31T21:53:28.267Z,71.39
2022-07-31T21:55:58.956Z,71.63
2022-07-31T21:58:27.102Z,71.18
2022-07-31T22:00:55.121Z,71.05
2022-07-31T22:03:24.355Z,71.52
2022-07-31T22:06:09.899Z,71.52
2022-07-31T22:08:38.024Z,71.71
2022-07-31T22:11:07.484Z,71.76
2022-07-31T22:13:35.426Z,72.38
2022-07-31T22:16:03.882Z,72.18
2022-07-31T22:18:34.239Z,72.61
2022-07-31T22:21:04.270Z,73.49
2022-07-31T22:23:32.738Z,74.08
2022-07-31T22:26:01.311Z,74.61
2022-07-31T22:28:31.041Z,75.32
2022-07-31T22:30:59.532Z,75.78
2022-07-31T22:33:28.645Z,76.19
2022-07-31T22:36:02.652Z,76.41
2022-07-31T22:38:31.453Z,76.88
2022-07-31T22:41:00.020Z,77.23
2022-07-31T22:44:10.588Z,78.24
2022-07-31T22:46:18.413Z,78.13
2022-07-31T22:48:47.170Z,78.58
2022-07-31T22:51:15.761Z,79.30
2022-07-31T22:53:44.277Z,79.89
2022-07-31T22:56:12.280Z,80.19
2022-07-31T22:58:40.370Z,81.72
2022-07-31T23:01:08.390Z,82.81
2022-07-31T23:03:37.737Z,83.81
2022-07-31T23:06:31.738Z,84.56
2022-07-31T23:08:55.104Z,84.77
2022-07-31T23:11:24.548Z,85.74
2022-07-31T23:13:52.759Z,86.16
2022-07-31T23:16:21.366Z,86.93
2022-07-31T23:18:51.496Z,86.73
2022-07-31T23:21:20.227Z,86.78
2022-07-31T23:23:49.361Z,87.56
2022-07-31T23:26:18.966Z,87.71
2022-07-31T23:28:47.186Z,88.10
2022-07-31T23:31:15.567Z,87.90
2022-07-31T23:33:43.995Z,88.13
2022-07-31T23:36:13.978Z,88.52
2022-07-31T23:38:42.409Z,88.75
2022-07-31T23:41:10.947Z,89.12
2022-07-31T23:43:38.017Z,89.39
2022-07-31T23:46:06.550Z,89.37
2022-07-31T23:48:36.091Z,89.31
2022-07-31T23:51:04.088Z,89.49
2022-07-31T23:53:33.354Z,89.28
2022-07-31T23:56:01.280Z,89.01
2022-07-31T23:58:29.229Z,88.95
